createdAt,value
2022-12-31T00:00:02.097Z,12.34
2022-12-31T00:01:10.492Z,12.38
2022-12-31T00:02:13.159Z,12.36
2022-12-31T00:03:15.978Z,12.35
2022-12-31T00:04:18.548Z,12.36
2022-12-31T00:05:21.077Z,12.36
2022-12-31T00:06:25.500Z,12.36
2022-12-31T00:07:28.263Z,12.36
2022-12-31T00:08:31.025Z,12.37
2022-12-31T00:09:33.665Z,12.37
2022-12-31T00:10:41.410Z,12.40
2022-12-31T00:11:44.229Z,12.40
2022-12-31T00:12:46.751Z,12.41
2022-12-31T00:13:49.754Z,12.43
2022-12-31T00:14:52.280Z,12.42
2022-12-31T00:15:54.925Z,12.43
2022-12-31T00:16:57.842Z,12.45
2022-12-31T00:18:00.459Z,12.47
2022-12-31T00:19:04.206Z,12.49
2022-12-31T00:20:07.525Z,12.48
2022-12-31T00:21:11.004Z,12.49
2022-12-31T00:22:13.765Z,12.49
2022-12-31T00:23:17.068Z,12.50
2022-12-31T00:24:19.905Z,12.50
2022-12-31T00:25:23.022Z,12.48
2022-12-31T00:26:28.894Z,12.52
2022-12-31T00:27:32.377Z,12.53
2022-12-31T00:28:36.938Z,12.54
2022-12-31T00:29:39.835Z,12.51
2022-12-31T00:30:42.830Z,12.49
2022-12-31T00:31:45.830Z,12.50
2022-12-31T00:32:48.943Z,12.48
2022-12-31T00:33:52.784Z,12.52
2022-12-31T00:34:55.907Z,12.53
2022-12-31T00:36:15.232Z,12.52
2022-12-31T00:37:18.470Z,12.51
2022-12-31T00:38:21.600Z,12.51
2022-12-31T00:39:24.953Z,12.49
2022-12-31T00:40:30.239Z,12.49
2022-12-31T00:41:33.839Z,12.48
2022-12-31T00:42:36.971Z,12.43
2022-12-31T00:43:40.087Z,12.43
2022-12-31T00:44:43.204Z,12.40
2022-12-31T00:45:46.380Z,12.37
2022-12-31T00:46:49.566Z,12.30
2022-12-31T00:47:52.689Z,12.31
2022-12-31T00:48:55.809Z,12.29
2022-12-31T00:49:58.932Z,12.27
2022-12-31T00:51:03.380Z,12.26
2022-12-31T00:52:06.977Z,12.19
2022-12-31T00:53:10.100Z,12.15
2022-12-31T00:54:14.545Z,12.14
2022-12-31T00:55:17.784Z,12.07
2022-12-31T00:56:24.022Z,12.05
2022-12-31T00:57:27.264Z,12.02
2022-12-31T00:58:31.106Z,12.02
2022-12-31T00:59:34.587Z,12.05
2022-12-31T01:00:38.788Z,11.98
2022-12-31T01:01:43.573Z,12.00
2022-12-31T01:02:46.935Z,12.01
2022-12-31T01:03:52.846Z,12.04
2022-12-31T01:04:56.076Z,11.98
2022-12-31T01:06:00.044Z,12.01
2022-12-31T01:07:02.917Z,11.99
2022-12-31T01:08:06.180Z,11.98
2022-12-31T01:09:10.722Z,11.98
2022-12-31T01:10:33.460Z,11.98
2022-12-31T01:11:36.529Z,11.98
2022-12-31T01:12:39.222Z,11.92
2022-12-31T01:13:41.861Z,11.91
2022-12-31T01:14:44.517Z,11.88
2022-12-31T01:15:47.529Z,11.94
2022-12-31T01:16:52.863Z,11.86
2022-12-31T01:17:55.433Z,11.85
2022-12-31T01:19:03.471Z,11.92
2022-12-31T01:20:06.585Z,11.89
2022-12-31T01:21:11.990Z,11.91
2022-12-31T01:22:14.511Z,11.90
2022-12-31T01:23:17.049Z,11.94
2022-12-31T01:24:20.404Z,11.92
2022-12-31T01:25:24.952Z,11.91
2022-12-31T01:26:28.533Z,11.91
2022-12-31T01:27:31.032Z,11.90
2022-12-31T01:28:33.951Z,11.90
2022-12-31T01:29:36.557Z,11.91
2022-12-31T01:30:40.240Z,11.90
2022-12-31T01:31:43.329Z,11.89
2022-12-31T01:32:45.839Z,11.87
2022-12-31T01:33:49.185Z,11.90
2022-12-31T01:34:51.815Z,11.88
2022-12-31T01:35:54.354Z,11.91
2022-12-31T01:36:57.016Z,11.87
2022-12-31T01:37:59.523Z,11.85
2022-12-31T01:39:03.720Z,11.88
2022-12-31T01:40:06.721Z,11.90
2022-12-31T01:41:38.161Z,11.91
2022-12-31T01:42:46.934Z,11.89
2022-12-31T01:43:59.979Z,11.90
2022-12-31T01:45:03.845Z,11.89
2022-12-31T01:46:14.525Z,11.91
2022-12-31T01:47:54.072Z,11.91
2022-12-31T01:49:32.884Z,11.91
2022-12-31T01:50:39.254Z,11.94
2022-12-31T01:51:47.797Z,11.91
2022-12-31T01:52:56.363Z,11.89
2022-12-31T01:54:02.554Z,11.91
2022-12-31T01:55:23.141Z,11.93
2022-12-31T01:56:26.529Z,11.92
2022-12-31T01:57:29.774Z,11.96
2022-12-31T01:58:41.425Z,12.01
2022-12-31T01:59:45.379Z,11.96
2022-12-31T02:00:49.221Z,12.00
2022-12-31T02:01:54.859Z,11.94
2022-12-31T02:02:57.573Z,11.94
2022-12-31T02:04:05.661Z,12.00
2022-12-31T02:05:18.741Z,11.98
2022-12-31T02:06:25.841Z,11.95
2022-12-31T02:07:28.462Z,11.93
2022-12-31T02:08:31.223Z,11.92
2022-12-31T02:09:36.017Z,11.94
2022-12-31T02:10:38.547Z,11.94
2022-12-31T02:11:41.188Z,11.96
2022-12-31T02:12:44.067Z,11.94
2022-12-31T02:13:46.595Z,11.93
2022-12-31T02:14:52.596Z,11.97
2022-12-31T02:16:19.878Z,11.98
2022-12-31T02:17:30.164Z,12.00
2022-12-31T02:19:00.037Z,12.02
2022-12-31T02:20:11.795Z,11.99
2022-12-31T02:21:44.563Z,12.00
2022-12-31T02:23:27.641Z,12.02
2022-12-31T02:24:58.497Z,12.02
2022-12-31T02:26:19.023Z,11.96
2022-12-31T02:27:33.409Z,12.00
2022-12-31T02:28:50.813Z,12.01
2022-12-31T02:30:01.380Z,11.98
2022-12-31T02:31:20.627Z,11.99
2022-12-31T02:32:46.389Z,12.02
2022-12-31T02:33:57.560Z,11.99
2022-12-31T02:35:07.863Z,12.00
2022-12-31T02:36:16.867Z,11.97
2022-12-31T02:37:23.948Z,11.98
2022-12-31T02:38:33.074Z,11.99
2022-12-31T02:39:37.035Z,11.97
2022-12-31T02:40:40.752Z,11.97
2022-12-31T02:41:53.235Z,11.96
2022-12-31T02:42:56.367Z,11.96
2022-12-31T02:43:59.476Z,11.96
2022-12-31T02:45:02.598Z,11.93
2022-12-31T02:46:21.950Z,11.93
2022-12-31T02:47:40.903Z,11.97
2022-12-31T02:49:01.527Z,11.98
2022-12-31T02:50:55.831Z,11.97
2022-12-31T02:52:14.617Z,12.02
2022-12-31T02:53:54.093Z,12.02
2022-12-31T02:55:19.656Z,12.01
2022-12-31T02:56:35.985Z,11.98
2022-12-31T02:58:01.299Z,11.98
2022-12-31T02:59:34.421Z,11.94
2022-12-31T03:01:04.503Z,11.95
2022-12-31T03:02:16.413Z,11.94
2022-12-31T03:03:21.709Z,11.93
2022-12-31T03:04:33.495Z,11.91
2022-12-31T03:05:43.673Z,11.96
2022-12-31T03:06:47.283Z,11.91
2022-12-31T03:07:50.277Z,11.90
2022-12-31T03:09:11.638Z,11.90
2022-12-31T03:10:14.763Z,11.91
2022-12-31T03:11:37.442Z,11.89
2022-12-31T03:12:48.958Z,11.89
2022-12-31T03:13:51.862Z,11.85
2022-12-31T03:14:54.494Z,11.84
2022-12-31T03:15:57.193Z,11.83
2022-12-31T03:16:59.891Z,11.81
2022-12-31T03:18:04.269Z,11.83
2022-12-31T03:19:45.186Z,11.84
2022-12-31T03:21:09.181Z,11.84
2022-12-31T03:22:32.468Z,11.88
2022-12-31T03:23:35.541Z,11.86
2022-12-31T03:24:56.709Z,11.81
2022-12-31T03:25:59.547Z,11.85
2022-12-31T03:27:02.066Z,11.78
2022-12-31T03:28:16.638Z,11.80
2022-12-31T03:29:19.150Z,11.72
2022-12-31T03:30:23.114Z,11.76
2022-12-31T03:31:25.650Z,11.76
2022-12-31T03:32:28.137Z,11.78
2022-12-31T03:33:33.674Z,11.81
2022-12-31T03:34:36.197Z,11.76
2022-12-31T03:35:39.931Z,11.78
2022-12-31T03:36:42.437Z,11.72
2022-12-31T03:37:45.286Z,11.73
2022-12-31T03:38:52.590Z,11.74
2022-12-31T03:39:55.494Z,11.72
2022-12-31T03:40:58.050Z,11.72
2022-12-31T03:42:01.158Z,11.72
2022-12-31T03:43:03.773Z,11.71
2022-12-31T03:44:06.441Z,11.73
2022-12-31T03:45:10.979Z,11.73
2022-12-31T03:46:13.744Z,11.68
2022-12-31T03:47:16.283Z,11.67
2022-12-31T03:48:19.526Z,11.69
2022-12-31T03:49:22.043Z,11.74
2022-12-31T03:50:25.886Z,11.72
2022-12-31T03:51:28.528Z,11.70
2022-12-31T03:52:31.165Z,11.69
2022-12-31T03:53:35.757Z,11.69
2022-12-31T03:54:38.253Z,11.72
2022-12-31T03:55:40.892Z,11.67
2022-12-31T03:56:43.413Z,11.68
2022-12-31T03:57:46.410Z,11.66
2022-12-31T03:58:48.933Z,11.63
2022-12-31T03:59:51.571Z,11.60
2022-12-31T04:00:54.133Z,11.60
2022-12-31T04:01:56.877Z,11.62
2022-12-31T04:02:59.547Z,11.61
2022-12-31T04:04:02.019Z,11.63
2022-12-31T04:05:04.955Z,11.61
2022-12-31T04:06:07.538Z,11.60
2022-12-31T04:07:10.061Z,11.54
2022-12-31T04:08:12.703Z,11.58
2022-12-31T04:09:15.218Z,11.54
2022-12-31T04:10:18.823Z,11.53
2022-12-31T04:11:21.376Z,11.53
2022-12-31T04:12:23.864Z,11.52
2022-12-31T04:13:26.387Z,11.55
2022-12-31T04:14:29.152Z,11.57
2022-12-31T04:15:32.046Z,11.52
2022-12-31T04:16:34.690Z,11.53
2022-12-31T04:17:37.326Z,11.51
2022-12-31T04:18:39.843Z,11.53
2022-12-31T04:19:42.362Z,11.50
2022-12-31T04:20:44.997Z,11.53
2022-12-31T04:21:47.519Z,11.53
2022-12-31T04:22:50.040Z,11.44
2022-12-31T04:23:52.566Z,11.41
2022-12-31T04:24:55.092Z,11.40
2022-12-31T04:25:58.091Z,11.42
2022-12-31T04:27:07.292Z,11.41
2022-12-31T04:28:10.702Z,11.37
2022-12-31T04:29:13.449Z,11.36
2022-12-31T04:30:16.212Z,11.31
2022-12-31T04:31:19.237Z,11.32
2022-12-31T04:32:22.224Z,11.37
2022-12-31T04:33:25.097Z,11.35
2022-12-31T04:34:28.098Z,11.32
2022-12-31T04:35:31.111Z,11.29
2022-12-31T04:36:34.461Z,11.30
2022-12-31T04:37:37.586Z,11.28
2022-12-31T04:38:40.706Z,11.26
2022-12-31T04:39:43.827Z,11.27
2022-12-31T04:41:05.434Z,11.28
2022-12-31T04:42:08.553Z,11.25
2022-12-31T04:43:11.673Z,11.26
2022-12-31T04:44:14.798Z,11.22
2022-12-31T04:45:17.917Z,11.19
2022-12-31T04:46:25.120Z,11.17
2022-12-31T04:47:28.245Z,11.21
2022-12-31T04:48:31.484Z,11.20
2022-12-31T04:49:34.611Z,11.14
2022-12-31T04:50:37.966Z,11.20
2022-12-31T04:51:41.086Z,11.22
2022-12-31T04:52:44.338Z,11.19
2022-12-31T04:53:48.051Z,11.18
2022-12-31T04:54:51.182Z,11.15
2022-12-31T04:55:54.417Z,11.17
2022-12-31T04:56:57.537Z,11.16
2022-12-31T04:58:00.659Z,11.14
2022-12-31T04:59:05.341Z,11.16
2022-12-31T05:00:09.424Z,11.11
2022-12-31T05:01:13.696Z,11.12
2022-12-31T05:02:17.393Z,11.11
2022-12-31T05:03:21.963Z,11.11
2022-12-31T05:04:25.399Z,11.11
2022-12-31T05:05:28.510Z,11.14
2022-12-31T05:06:32.110Z,11.14
2022-12-31T05:07:37.036Z,11.14
2022-12-31T05:08:40.276Z,11.15
2022-12-31T05:09:43.048Z,11.14
2022-12-31T05:10:48.563Z,11.10
2022-12-31T05:11:51.694Z,11.11
2022-12-31T05:12:54.445Z,11.12
2022-12-31T05:13:57.085Z,11.12
2022-12-31T05:14:59.966Z,11.11
2022-12-31T05:16:03.581Z,11.17
2022-12-31T05:17:06.212Z,11.10
2022-12-31T05:18:09.260Z,11.12
2022-12-31T05:19:11.917Z,11.13
2022-12-31T05:20:14.550Z,11.11
2022-12-31T05:21:21.304Z,11.16
2022-12-31T05:22:29.803Z,11.14
2022-12-31T05:23:32.619Z,11.13
2022-12-31T05:24:35.187Z,11.16
2022-12-31T05:25:38.263Z,11.13
2022-12-31T05:26:40.904Z,11.11
2022-12-31T05:27:43.476Z,11.13
2022-12-31T05:28:46.114Z,11.12
2022-12-31T05:29:48.758Z,11.10
2022-12-31T05:30:51.655Z,11.12
2022-12-31T05:31:54.156Z,11.11
2022-12-31T05:32:56.789Z,11.17
2022-12-31T05:33:59.560Z,11.13
2022-12-31T05:35:02.168Z,11.14
2022-12-31T05:36:05.169Z,11.09
2022-12-31T05:37:07.837Z,11.11
2022-12-31T05:38:12.145Z,11.14
2022-12-31T05:39:14.811Z,11.13
2022-12-31T05:40:17.563Z,11.14
2022-12-31T05:41:20.077Z,11.13
2022-12-31T05:42:23.200Z,11.16
2022-12-31T05:43:25.720Z,11.16
2022-12-31T05:44:28.121Z,11.15
2022-12-31T05:45:31.347Z,11.13
2022-12-31T05:46:34.728Z,11.11
2022-12-31T05:47:37.836Z,11.13
2022-12-31T05:48:40.602Z,11.16
2022-12-31T05:49:43.244Z,11.18
2022-12-31T05:50:45.886Z,11.17
2022-12-31T05:51:48.414Z,11.18
2022-12-31T05:52:51.288Z,11.19
2022-12-31T05:53:54.059Z,11.18
2022-12-31T05:54:57.786Z,11.19
2022-12-31T05:56:00.558Z,11.18
2022-12-31T05:57:04.498Z,11.20
2022-12-31T05:58:07.369Z,11.20
2022-12-31T05:59:10.261Z,11.19
2022-12-31T06:00:13.252Z,11.21
2022-12-31T06:01:18.898Z,11.16
2022-12-31T06:02:22.058Z,11.14
2022-12-31T06:03:24.767Z,11.13
2022-12-31T06:04:27.411Z,11.14
2022-12-31T06:05:29.939Z,11.16
2022-12-31T06:06:32.695Z,11.18
2022-12-31T06:07:35.352Z,11.17
2022-12-31T06:08:39.660Z,11.13
2022-12-31T06:09:42.178Z,11.14
2022-12-31T06:10:44.697Z,11.12
2022-12-31T06:11:47.578Z,11.15
2022-12-31T06:12:50.225Z,11.16
2022-12-31T06:13:52.864Z,11.14
2022-12-31T06:14:55.512Z,11.14
2022-12-31T06:15:58.096Z,11.15
2022-12-31T06:17:00.918Z,11.14
2022-12-31T06:18:03.548Z,11.09
2022-12-31T06:19:06.438Z,11.10
2022-12-31T06:20:13.028Z,11.09
2022-12-31T06:21:16.035Z,11.09
2022-12-31T06:22:18.808Z,11.07
2022-12-31T06:23:21.561Z,11.05
2022-12-31T06:24:24.206Z,11.04
2022-12-31T06:25:26.722Z,11.06
2022-12-31T06:26:29.243Z,11.04
2022-12-31T06:27:31.774Z,11.05
2022-12-31T06:28:34.408Z,11.08
2022-12-31T06:29:37.409Z,11.10
2022-12-31T06:30:40.049Z,11.07
2022-12-31T06:31:42.818Z,11.04
2022-12-31T06:32:45.575Z,11.04
2022-12-31T06:33:48.334Z,11.04
2022-12-31T06:34:51.350Z,11.05
2022-12-31T06:36:02.138Z,11.09
2022-12-31T06:37:05.275Z,11.04
2022-12-31T06:38:08.271Z,11.04
2022-12-31T06:39:11.390Z,11.03
2022-12-31T06:40:14.641Z,11.01
2022-12-31T06:41:18.723Z,11.01
2022-12-31T06:42:21.833Z,11.01
2022-12-31T06:43:24.952Z,10.99
2022-12-31T06:44:28.074Z,10.95
2022-12-31T06:45:31.195Z,10.96
2022-12-31T06:46:34.498Z,10.95
2022-12-31T06:47:37.800Z,10.97
2022-12-31T06:48:43.439Z,10.99
2022-12-31T06:49:46.560Z,11.00
2022-12-31T06:50:49.684Z,10.94
2022-12-31T06:51:52.936Z,10.91
2022-12-31T06:52:56.051Z,10.97
2022-12-31T06:53:59.168Z,10.98
2022-12-31T06:55:02.529Z,10.96
2022-12-31T06:56:08.416Z,10.97
2022-12-31T06:57:11.895Z,10.94
2022-12-31T06:58:16.820Z,10.97
2022-12-31T06:59:28.836Z,10.97
2022-12-31T07:00:32.058Z,10.96
2022-12-31T07:01:50.617Z,10.98
2022-12-31T07:03:02.127Z,10.92
2022-12-31T07:04:32.928Z,11.01
2022-12-31T07:05:42.267Z,11.03
2022-12-31T07:07:09.274Z,11.03
2022-12-31T07:08:44.551Z,11.00
2022-12-31T07:10:08.690Z,10.99
2022-12-31T07:11:32.199Z,10.93
2022-12-31T07:12:56.331Z,10.98
2022-12-31T07:13:59.085Z,10.91
2022-12-31T07:15:20.216Z,10.90
2022-12-31T07:16:27.144Z,10.94
2022-12-31T07:17:48.411Z,10.96
2022-12-31T07:18:58.131Z,11.00
2022-12-31T07:20:10.367Z,10.98
2022-12-31T07:21:16.426Z,10.98
2022-12-31T07:22:20.819Z,10.93
2022-12-31T07:23:23.696Z,10.92
2022-12-31T07:24:26.991Z,10.93
2022-12-31T07:25:30.135Z,10.93
2022-12-31T07:26:56.488Z,10.91
2022-12-31T07:27:59.704Z,10.93
2022-12-31T07:29:09.546Z,10.89
2022-12-31T07:30:17.106Z,10.91
2022-12-31T07:31:29.777Z,10.93
2022-12-31T07:32:54.110Z,10.95
2022-12-31T07:34:00.476Z,10.91
2022-12-31T07:35:35.218Z,11.00
2022-12-31T07:36:58.674Z,11.00
2022-12-31T07:38:12.927Z,11.00
2022-12-31T07:39:30.363Z,10.95
2022-12-31T07:40:44.285Z,10.99
2022-12-31T07:42:09.475Z,10.99
2022-12-31T07:43:24.090Z,10.98
2022-12-31T07:44:35.642Z,11.06
2022-12-31T07:45:50.258Z,11.08
2022-12-31T07:46:57.288Z,11.08
2022-12-31T07:48:02.676Z,11.03
2022-12-31T07:49:13.461Z,11.07
2022-12-31T07:50:18.124Z,11.04
2022-12-31T07:51:21.127Z,11.03
2022-12-31T07:52:24.620Z,11.03
2022-12-31T07:53:27.491Z,11.09
2022-12-31T07:54:30.125Z,11.08
2022-12-31T07:55:32.659Z,11.07
2022-12-31T07:56:35.411Z,11.03
2022-12-31T07:58:02.893Z,11.14
2022-12-31T07:59:24.605Z,11.17
2022-12-31T08:00:29.530Z,11.18
2022-12-31T08:01:50.172Z,11.21
2022-12-31T08:03:11.299Z,11.28
2022-12-31T08:04:31.816Z,11.25
2022-12-31T08:05:41.293Z,11.21
2022-12-31T08:06:49.694Z,11.20
2022-12-31T08:08:17.179Z,11.31
2022-12-31T08:09:39.375Z,11.32
2022-12-31T08:11:03.621Z,11.30
2022-12-31T08:12:08.178Z,11.27
2022-12-31T08:13:12.268Z,11.27
2022-12-31T08:14:15.501Z,11.27
2022-12-31T08:15:19.479Z,11.27
2022-12-31T08:16:22.279Z,11.24
2022-12-31T08:17:24.875Z,11.28
2022-12-31T08:18:27.751Z,11.34
2022-12-31T08:19:32.435Z,11.37
2022-12-31T08:21:07.591Z,11.37
2022-12-31T08:22:23.555Z,11.38
2022-12-31T08:23:41.470Z,11.38
2022-12-31T08:25:16.130Z,11.38
2022-12-31T08:26:30.759Z,11.42
2022-12-31T08:27:50.810Z,11.40
2022-12-31T08:29:17.087Z,11.46
2022-12-31T08:30:21.897Z,11.46
2022-12-31T08:31:43.676Z,11.43
2022-12-31T08:33:03.900Z,11.43
2022-12-31T08:34:09.661Z,11.46
2022-12-31T08:35:46.501Z,11.50
2022-12-31T08:37:07.263Z,11.50
2022-12-31T08:38:29.698Z,11.47
2022-12-31T08:39:32.584Z,11.54
2022-12-31T08:40:51.783Z,11.49
2022-12-31T08:41:58.055Z,11.53
2022-12-31T08:43:29.114Z,11.54
2022-12-31T08:45:04.411Z,11.51
2022-12-31T08:46:19.632Z,11.53
2022-12-31T08:47:43.398Z,11.53
2022-12-31T08:48:48.201Z,11.47
2022-12-31T08:49:51.317Z,11.50
2022-12-31T08:50:55.159Z,11.52
2022-12-31T08:51:59.721Z,11.51
2022-12-31T08:53:03.093Z,11.50
2022-12-31T08:54:06.453Z,11.50
2022-12-31T08:55:17.131Z,11.54
2022-12-31T08:56:30.098Z,11.52
2022-12-31T08:57:34.172Z,11.53
2022-12-31T08:58:49.542Z,11.64
2022-12-31T09:00:07.780Z,11.60
2022-12-31T09:01:13.132Z,11.61
2022-12-31T09:02:22.307Z,11.64
2022-12-31T09:03:52.917Z,11.65
2022-12-31T09:05:20.387Z,11.64
2022-12-31T09:07:00.349Z,11.66
2022-12-31T09:08:44.990Z,11.70
2022-12-31T09:10:22.975Z,11.71
2022-12-31T09:11:53.392Z,11.70
2022-12-31T09:13:06.236Z,11.72
2022-12-31T09:14:14.876Z,11.71
2022-12-31T09:15:26.647Z,11.73
2022-12-31T09:16:58.015Z,11.70
2022-12-31T09:18:01.085Z,11.71
2022-12-31T09:19:04.353Z,11.69
2022-12-31T09:20:14.407Z,11.73
2022-12-31T09:21:17.287Z,11.75
2022-12-31T09:22:20.176Z,11.75
2022-12-31T09:23:23.173Z,11.76
2022-12-31T09:24:25.985Z,11.80
2022-12-31T09:25:30.856Z,11.81
2022-12-31T09:26:45.382Z,11.88
2022-12-31T09:28:06.510Z,11.88
2022-12-31T09:29:34.986Z,11.86
2022-12-31T09:31:11.587Z,11.94
2022-12-31T09:32:50.922Z,11.94
2022-12-31T09:34:21.310Z,11.94
2022-12-31T09:35:35.316Z,11.97
2022-12-31T09:36:51.399Z,12.00
2022-12-31T09:38:21.758Z,12.00
2022-12-31T09:39:39.434Z,11.99
2022-12-31T09:41:15.923Z,12.05
2022-12-31T09:42:51.082Z,12.08
2022-12-31T09:44:21.437Z,12.06
2022-12-31T09:45:39.346Z,12.12
2022-12-31T09:46:53.488Z,12.12
2022-12-31T09:48:19.758Z,12.16
2022-12-31T09:49:28.045Z,12.16
2022-12-31T09:50:55.280Z,12.18
2022-12-31T09:52:03.682Z,12.18
2022-12-31T09:53:53.726Z,12.24
2022-12-31T09:55:02.250Z,12.20
2022-12-31T09:56:11.254Z,12.23
2022-12-31T09:57:24.084Z,12.28
2022-12-31T09:58:29.251Z,12.29
2022-12-31T10:00:10.059Z,12.35
2022-12-31T10:03:12.963Z,12.39
2022-12-31T10:04:33.573Z,12.42
2022-12-31T10:05:59.611Z,12.48
2022-12-31T10:07:17.018Z,12.43
2022-12-31T10:08:34.534Z,12.55
2022-12-31T10:09:45.578Z,12.58
2022-12-31T10:11:10.784Z,12.63
2022-12-31T10:12:44.377Z,12.66
2022-12-31T10:14:14.015Z,12.63
2022-12-31T10:15:35.027Z,12.72
2022-12-31T10:16:40.337Z,12.72
2022-12-31T10:18:32.866Z,12.76
2022-12-31T10:20:05.640Z,12.80
2022-12-31T10:21:20.147Z,12.76
2022-12-31T10:22:36.473Z,12.78
2022-12-31T10:24:04.926Z,12.83
2022-12-31T10:25:38.815Z,12.89
2022-12-31T10:26:53.444Z,12.89
2022-12-31T10:28:15.364Z,12.92
2022-12-31T10:29:47.400Z,12.95
2022-12-31T10:31:11.217Z,12.94
2022-12-31T10:32:32.062Z,12.93
2022-12-31T10:33:42.010Z,12.99
2022-12-31T10:34:55.694Z,12.95
2022-12-31T10:36:30.734Z,13.03
2022-12-31T10:37:54.013Z,13.08
2022-12-31T10:39:23.989Z,13.12
2022-12-31T10:40:36.383Z,13.12
2022-12-31T10:41:51.867Z,13.17
2022-12-31T10:43:13.822Z,13.15
2022-12-31T10:44:32.065Z,13.17
2022-12-31T10:45:49.504Z,13.19
2022-12-31T10:47:31.350Z,13.25
2022-12-31T10:49:05.075Z,13.29
2022-12-31T10:50:38.195Z,13.31
2022-12-31T10:51:56.203Z,13.33
2022-12-31T10:53:21.426Z,13.33
2022-12-31T10:55:12.293Z,13.30
2022-12-31T10:56:40.846Z,13.28
2022-12-31T10:58:11.566Z,13.30
2022-12-31T10:59:40.249Z,13.31
2022-12-31T11:00:56.962Z,13.24
2022-12-31T11:02:10.804Z,13.31
2022-12-31T11:03:55.019Z,13.36
2022-12-31T11:05:13.273Z,13.33
2022-12-31T11:06:53.582Z,13.37
2022-12-31T11:08:11.827Z,13.37
2022-12-31T11:09:31.258Z,13.39
2022-12-31T11:10:52.509Z,13.46
2022-12-31T11:12:26.117Z,13.54
2022-12-31T11:13:31.992Z,13.52
2022-12-31T11:14:49.994Z,13.49
2022-12-31T11:16:15.119Z,13.52
2022-12-31T11:17:32.964Z,13.56
2022-12-31T11:18:47.720Z,13.55
2022-12-31T11:20:25.768Z,13.54
2022-12-31T11:22:16.531Z,13.54
2022-12-31T11:23:35.490Z,13.56
2022-12-31T11:25:06.504Z,13.60
2022-12-31T11:26:08.974Z,13.49
2022-12-31T11:27:22.951Z,13.49
2022-12-31T11:28:44.497Z,13.56
2022-12-31T11:30:01.825Z,13.56
2022-12-31T11:31:16.396Z,13.59
2022-12-31T11:32:26.550Z,13.58
2022-12-31T11:34:04.235Z,13.60
2022-12-31T11:35:20.988Z,13.57
2022-12-31T11:37:04.676Z,13.64
2022-12-31T11:38:32.155Z,13.63
2022-12-31T11:39:47.471Z,13.60
2022-12-31T11:41:29.650Z,13.68
2022-12-31T11:42:41.401Z,13.66
2022-12-31T11:44:00.044Z,13.68
2022-12-31T11:45:11.294Z,13.68
2022-12-31T11:46:16.998Z,13.71
2022-12-31T11:48:27.880Z,13.70
2022-12-31T11:49:24.741Z,13.74
2022-12-31T11:50:39.138Z,13.78
2022-12-31T11:51:55.961Z,13.78
2022-12-31T11:53:31.026Z,13.82
2022-12-31T11:54:55.603Z,13.79
2022-12-31T11:56:22.472Z,13.78
2022-12-31T11:57:35.925Z,13.73
2022-12-31T11:58:42.403Z,13.66
2022-12-31T11:59:45.170Z,13.63
2022-12-31T12:01:19.802Z,13.64
2022-12-31T12:02:34.436Z,13.63
2022-12-31T12:03:42.676Z,13.66
2022-12-31T12:04:48.768Z,13.60
2022-12-31T12:05:51.654Z,13.60
2022-12-31T12:06:54.287Z,13.53
2022-12-31T12:07:57.185Z,13.51
2022-12-31T12:09:03.892Z,13.56
2022-12-31T12:10:42.172Z,13.55
2022-12-31T12:11:44.696Z,13.51
2022-12-31T12:12:47.212Z,13.50
2022-12-31T12:13:49.984Z,13.51
2022-12-31T12:14:54.786Z,13.54
2022-12-31T12:16:03.382Z,13.56
2022-12-31T12:17:18.665Z,13.58
2022-12-31T12:18:29.101Z,13.60
2022-12-31T12:19:33.943Z,13.58
2022-12-31T12:20:39.081Z,13.61
2022-12-31T12:21:49.403Z,13.60
2022-12-31T12:22:56.348Z,13.62
2022-12-31T12:24:25.747Z,13.70
2022-12-31T12:25:39.911Z,13.69
2022-12-31T12:26:47.001Z,13.63
2022-12-31T12:27:52.047Z,13.64
2022-12-31T12:28:54.564Z,13.62
2022-12-31T12:29:57.200Z,13.66
2022-12-31T12:31:05.203Z,13.70
2022-12-31T12:32:17.003Z,13.70
2022-12-31T12:33:20.727Z,13.69
2022-12-31T12:34:35.485Z,13.73
2022-12-31T12:35:39.567Z,13.69
2022-12-31T12:36:51.092Z,13.71
2022-12-31T12:38:06.818Z,13.68
2022-12-31T12:39:21.097Z,13.73
2022-12-31T12:40:31.452Z,13.73
2022-12-31T12:41:34.415Z,13.71
2022-12-31T12:42:50.022Z,13.76
2022-12-31T12:44:15.224Z,13.81
2022-12-31T12:45:21.940Z,13.77
2022-12-31T12:46:34.682Z,13.75
2022-12-31T12:47:37.915Z,13.74
2022-12-31T12:48:43.907Z,13.79
2022-12-31T12:49:50.149Z,13.84
2022-12-31T12:50:53.391Z,13.79
2022-12-31T12:52:02.399Z,13.88
2022-12-31T12:53:17.996Z,13.91
2022-12-31T12:54:40.926Z,13.95
2022-12-31T12:56:07.803Z,13.96
2022-12-31T12:57:33.610Z,13.94
2022-12-31T12:58:57.727Z,13.96
2022-12-31T13:00:20.058Z,13.91
2022-12-31T13:01:41.849Z,13.93
2022-12-31T13:03:09.370Z,13.94
2022-12-31T13:04:49.698Z,13.93
2022-12-31T13:06:17.416Z,13.92
2022-12-31T13:07:46.938Z,13.87
2022-12-31T13:08:53.301Z,13.97
2022-12-31T13:10:02.426Z,14.00
2022-12-31T13:11:22.103Z,13.98
2022-12-31T13:13:05.178Z,14.02
2022-12-31T13:14:31.122Z,14.10
2022-12-31T13:15:58.293Z,14.07
2022-12-31T13:17:21.033Z,14.08
2022-12-31T13:18:42.996Z,14.10
2022-12-31T13:19:54.277Z,14.11
2022-12-31T13:21:32.686Z,14.12
2022-12-31T13:22:59.098Z,14.13
2022-12-31T13:24:32.448Z,14.13
2022-12-31T13:25:40.900Z,14.16
2022-12-31T13:27:19.310Z,14.19
2022-12-31T13:28:25.132Z,14.18
2022-12-31T13:29:31.660Z,14.17
2022-12-31T13:30:41.742Z,14.18
2022-12-31T13:31:45.834Z,14.15
2022-12-31T13:33:06.904Z,14.22
2022-12-31T13:34:32.265Z,14.24
2022-12-31T13:36:11.507Z,14.18
2022-12-31T13:37:33.427Z,14.22
2022-12-31T13:38:47.379Z,14.13
2022-12-31T13:39:57.957Z,14.15
2022-12-31T13:41:06.313Z,14.16
2022-12-31T13:42:27.315Z,14.15
2022-12-31T13:43:35.957Z,14.14
2022-12-31T13:44:48.002Z,14.14
2022-12-31T13:46:10.993Z,14.13
2022-12-31T13:47:24.922Z,14.11
2022-12-31T13:48:36.834Z,14.12
2022-12-31T13:49:48.119Z,14.08
2022-12-31T13:51:01.936Z,14.05
2022-12-31T13:52:16.176Z,14.03
2022-12-31T13:53:29.644Z,14.08
2022-12-31T13:55:09.609Z,14.03
2022-12-31T13:56:24.270Z,14.01
2022-12-31T13:57:43.225Z,14.01
2022-12-31T13:59:21.963Z,14.01
2022-12-31T14:00:46.385Z,13.94
2022-12-31T14:02:02.060Z,13.98
2022-12-31T14:03:31.926Z,13.94
2022-12-31T14:04:50.650Z,13.90
2022-12-31T14:06:01.688Z,13.88
2022-12-31T14:07:18.162Z,13.85
2022-12-31T14:08:21.017Z,13.82
2022-12-31T14:09:27.974Z,13.82
2022-12-31T14:10:42.754Z,13.83
2022-12-31T14:12:03.612Z,13.78
2022-12-31T14:13:17.422Z,13.78
2022-12-31T14:14:33.016Z,13.77
2022-12-31T14:15:46.215Z,13.75
2022-12-31T14:17:03.744Z,13.77
2022-12-31T14:18:27.272Z,13.74
2022-12-31T14:19:47.657Z,13.73
2022-12-31T14:21:04.115Z,13.70
2022-12-31T14:22:40.590Z,13.70
2022-12-31T14:24:06.862Z,13.66
2022-12-31T14:25:22.961Z,13.61
2022-12-31T14:26:48.272Z,13.61
2022-12-31T14:27:53.550Z,13.61
2022-12-31T14:29:10.478Z,13.62
2022-12-31T14:30:19.829Z,13.60
2022-12-31T14:31:37.995Z,13.61
2022-12-31T14:32:58.840Z,13.61
2022-12-31T14:34:16.501Z,13.60
2022-12-31T14:35:44.804Z,13.57
2022-12-31T14:37:07.739Z,13.54
2022-12-31T14:38:28.850Z,13.55
2022-12-31T14:40:25.139Z,13.51
2022-12-31T14:42:03.174Z,13.51
2022-12-31T14:43:39.778Z,13.51
2022-12-31T14:44:59.479Z,13.50
2022-12-31T14:46:27.115Z,13.50
2022-12-31T14:47:58.873Z,13.50
2022-12-31T14:49:49.387Z,13.50
2022-12-31T14:50:53.237Z,13.44
2022-12-31T14:51:56.349Z,13.43
2022-12-31T14:53:10.153Z,13.48
2022-12-31T14:54:45.318Z,13.48
2022-12-31T14:56:07.514Z,13.45
2022-12-31T14:57:21.677Z,13.42
2022-12-31T14:58:30.678Z,13.42
2022-12-31T14:59:38.789Z,13.36
2022-12-31T15:01:01.249Z,13.40
2022-12-31T15:02:04.744Z,13.36
2022-12-31T15:03:16.913Z,13.38
2022-12-31T15:05:10.536Z,13.39
2022-12-31T15:06:35.257Z,13.39
2022-12-31T15:08:18.816Z,13.40
2022-12-31T15:09:59.497Z,13.35
2022-12-31T15:11:16.184Z,13.37
2022-12-31T15:12:30.474Z,13.33
2022-12-31T15:13:39.707Z,13.32
2022-12-31T15:15:01.188Z,13.24
2022-12-31T15:16:07.311Z,13.25
2022-12-31T15:17:45.715Z,13.29
2022-12-31T15:19:10.323Z,13.30
2022-12-31T15:20:41.636Z,13.26
2022-12-31T15:22:05.158Z,13.30
2022-12-31T15:23:22.679Z,13.30
2022-12-31T15:24:27.972Z,13.29
2022-12-31T15:25:40.264Z,13.29
2022-12-31T15:26:50.649Z,13.32
2022-12-31T15:27:54.609Z,13.27
2022-12-31T15:29:22.267Z,13.33